createdAt,value
2022-11-07T00:00:21.711Z,99949.19
2022-11-07T00:02:51.297Z,99940.34
2022-11-07T00:05:21.120Z,99944.19
2022-11-07T00:07:50.734Z,99947.72
2022-11-07T00:10:21.496Z,99946.72
2022-11-07T00:12:53.637Z,99960.69
2022-11-07T00:15:23.226Z,99960.50
2022-11-07T00:17:52.787Z,99954.22
2022-11-07T00:20:22.333Z,99964.00
2022-11-07T00:22:51.862Z,99956.03
2022-11-07T00:25:21.365Z,99966.41
2022-11-07T00:27:53.547Z,99964.69
2022-11-07T00:30:23.073Z,99977.03
2022-11-07T00:32:56.335Z,99977.03
2022-11-07T00:35:28.705Z,99981.28
2022-11-07T00:37:58.688Z,99987.50
2022-11-07T00:40:28.234Z,99989.38
2022-11-07T00:43:00.390Z,99985.03
2022-11-07T00:45:29.927Z,100000.91
2022-11-07T00:47:59.474Z,99991.84
2022-11-07T00:50:29.099Z,100002.16
2022-11-07T00:53:00.290Z,99997.03
2022-11-07T00:55:29.860Z,100005.03
2022-11-07T00:58:02.063Z,99999.06
2022-11-07T01:00:31.668Z,100005.34
2022-11-07T01:03:14.145Z,99992.00
2022-11-07T01:05:44.104Z,99992.00
2022-11-07T01:08:13.654Z,100002.66
2022-11-07T01:10:44.448Z,100001.78
2022-11-07T01:13:16.850Z,100007.94
2022-11-07T01:15:46.635Z,100002.66
2022-11-07T01:18:16.754Z,100000.91
2022-11-07T01:20:46.722Z,100000.78
2022-11-07T01:23:16.727Z,99998.13
2022-11-07T01:25:46.409Z,100007.03
2022-11-07T01:28:18.743Z,100005.34
2022-11-07T01:30:48.573Z,100002.88
2022-11-07T01:33:18.150Z,100001.09
2022-11-07T01:35:47.809Z,100005.63
2022-11-07T01:38:17.389Z,100007.41
2022-11-07T01:40:59.211Z,100003.97
2022-11-07T01:43:48.966Z,100002.44
2022-11-07T01:46:18.896Z,100000.03
2022-11-07T01:48:53.114Z,100007.19
2022-11-07T01:51:23.562Z,100009.91
2022-11-07T01:53:54.332Z,100004.63
2022-11-07T01:56:27.253Z,99999.44
2022-11-07T01:58:59.951Z,99990.06
2022-11-07T02:01:30.247Z,100002.47
2022-11-07T02:04:01.495Z,99987.50
2022-11-07T02:06:35.324Z,99988.44
2022-11-07T02:09:05.079Z,99987.75
2022-11-07T02:11:35.141Z,99989.38
2022-11-07T02:14:07.536Z,99992.06
2022-11-07T02:16:38.302Z,99986.03
2022-11-07T02:19:11.216Z,99994.97
2022-11-07T02:21:51.385Z,99994.72
2022-11-07T02:24:30.007Z,99998.28
2022-11-07T02:27:00.123Z,99999.22
2022-11-07T02:29:30.099Z,100001.72
2022-11-07T02:32:03.998Z,100000.78
2022-11-07T02:34:33.668Z,100003.41
2022-11-07T02:37:04.714Z,99993.47
2022-11-07T02:39:36.911Z,99999.34
2022-11-07T02:42:08.057Z,99995.78
2022-11-07T02:44:37.741Z,99992.47
2022-11-07T02:47:07.418Z,99997.66
2022-11-07T02:49:37.019Z,99995.03
2022-11-07T02:52:07.379Z,99999.34
2022-11-07T02:54:39.593Z,99997.41
2022-11-07T02:57:09.133Z,99994.53
2022-11-07T02:59:38.677Z,99995.47
2022-11-07T03:02:08.341Z,100013.06
2022-11-07T03:04:38.108Z,99991.81
2022-11-07T03:07:07.634Z,100005.00
2022-11-07T03:09:39.857Z,100005.75
2022-11-07T03:12:09.940Z,100018.09
2022-11-07T03:14:39.866Z,100011.97
2022-11-07T03:17:09.534Z,100001.19
2022-11-07T03:19:39.078Z,100013.34
2022-11-07T03:22:08.635Z,100013.25
2022-11-07T03:24:40.787Z,100006.53
2022-11-07T03:27:10.340Z,100017.25
2022-11-07T03:29:39.905Z,100007.47
2022-11-07T03:32:09.584Z,100016.38
2022-11-07T03:34:39.198Z,100014.59
2022-11-07T03:37:08.825Z,100022.50
2022-11-07T03:39:40.976Z,100019.03
2022-11-07T03:42:10.561Z,100021.53
2022-11-07T03:44:40.518Z,100017.09
2022-11-07T03:47:10.061Z,100025.06
2022-11-07T03:49:39.595Z,100021.34
2022-11-07T03:52:09.193Z,100029.44
2022-11-07T03:54:41.406Z,100016.25
2022-11-07T03:57:11.045Z,100023.22
2022-11-07T03:59:40.725Z,100022.50
2022-11-07T04:02:10.362Z,100025.25
2022-11-07T04:04:40.126Z,100032.13
2022-11-07T04:07:09.861Z,100024.06
2022-11-07T04:09:41.976Z,100031.97
2022-11-07T04:12:24.529Z,100029.34
2022-11-07T04:15:22.089Z,100034.63
2022-11-07T04:17:51.646Z,100031.28
2022-11-07T04:20:21.336Z,100028.41
2022-11-07T04:22:50.898Z,100031.22
2022-11-07T04:25:43.351Z,100030.19
2022-11-07T04:28:10.302Z,100028.31
2022-11-07T04:30:39.906Z,100021.53
2022-11-07T04:33:09.552Z,100026.19
2022-11-07T04:35:39.099Z,100030.69
2022-11-07T04:38:08.716Z,100029.66
2022-11-07T04:40:40.834Z,100024.47
2022-11-07T04:43:11.815Z,100025.31
2022-11-07T04:45:42.007Z,100027.97
2022-11-07T04:48:12.873Z,100024.38
2022-11-07T04:50:42.853Z,100026.00
2022-11-07T04:53:15.447Z,100034.84
2022-11-07T04:55:48.017Z,100024.16
2022-11-07T04:58:17.551Z,100035.31
2022-11-07T05:00:47.129Z,100035.31
2022-11-07T05:03:17.051Z,100027.28
2022-11-07T05:05:46.951Z,100029.78
2022-11-07T05:08:16.540Z,100023.50
2022-11-07T05:10:48.700Z,100022.47
2022-11-07T05:13:18.602Z,100023.41
2022-11-07T05:15:48.271Z,100025.81
2022-11-07T05:18:21.202Z,100023.78
2022-11-07T05:20:50.793Z,100025.81
2022-11-07T05:23:19.055Z,100027.81
2022-11-07T05:25:53.351Z,100028.44
2022-11-07T05:28:33.672Z,100031.84
2022-11-07T05:31:08.513Z,100027.16
2022-11-07T05:33:40.347Z,100034.97
2022-11-07T05:36:14.585Z,100035.66
2022-11-07T05:38:45.360Z,100041.63
2022-11-07T05:41:18.936Z,100034.66
2022-11-07T05:43:48.766Z,100040.97
2022-11-07T05:46:18.381Z,100037.13
2022-11-07T05:48:48.004Z,100028.28
2022-11-07T05:51:17.667Z,100037.88
2022-11-07T05:53:47.380Z,100035.88
2022-11-07T05:56:20.157Z,100038.50
2022-11-07T05:58:50.932Z,100043.03
2022-11-07T06:01:20.732Z,100054.25
2022-11-07T06:03:50.339Z,100056.66
2022-11-07T06:06:19.879Z,100047.47
2022-11-07T06:10:29.886Z,100055.44
2022-11-07T06:13:03.588Z,100045.38
2022-11-07T06:15:35.876Z,100045.59
2022-11-07T06:18:07.242Z,100055.72
2022-11-07T06:20:37.955Z,100058.19
2022-11-07T06:23:08.776Z,100044.66
2022-11-07T06:25:41.126Z,100049.94
2022-11-07T06:28:12.609Z,100044.56
2022-11-07T06:30:42.526Z,100045.31
2022-11-07T06:33:15.622Z,100044.16
2022-11-07T06:35:46.148Z,100057.34
2022-11-07T06:38:17.113Z,100054.19
2022-11-07T06:40:49.556Z,100054.81
2022-11-07T06:43:20.967Z,100060.09
2022-11-07T06:45:51.001Z,100065.97
2022-11-07T06:48:20.568Z,100066.75
2022-11-07T06:50:50.277Z,100070.03
2022-11-07T06:53:20.153Z,100073.53
2022-11-07T06:55:52.455Z,100072.34
2022-11-07T06:58:22.193Z,100076.03
2022-11-07T07:00:51.955Z,100066.22
2022-11-07T07:03:21.682Z,100074.06
2022-11-07T07:05:51.280Z,100071.16
2022-11-07T07:08:21.069Z,100062.13
2022-11-07T07:10:53.233Z,100061.97
2022-11-07T07:13:22.838Z,100076.34
2022-11-07T07:15:56.592Z,100077.88
2022-11-07T07:18:26.587Z,100073.28
2022-11-07T07:20:58.368Z,100082.16
2022-11-07T07:23:27.977Z,100082.06
2022-11-07T07:26:00.318Z,100089.03
2022-11-07T07:28:30.062Z,100081.75
2022-11-07T07:31:11.122Z,100095.72
2022-11-07T07:33:40.834Z,100093.84
2022-11-07T07:36:15.294Z,100090.19
2022-11-07T07:38:47.555Z,100093.50
2022-11-07T07:41:20.204Z,100090.59
2022-11-07T07:43:49.790Z,100093.16
2022-11-07T07:46:22.631Z,100103.72
2022-11-07T07:48:52.307Z,100098.44
2022-11-07T07:51:22.097Z,100096.53
2022-11-07T07:53:51.669Z,100108.91
2022-11-07T07:56:24.404Z,100102.44
2022-11-07T07:58:54.214Z,100117.34
2022-11-07T08:01:23.969Z,100104.69
2022-11-07T08:04:02.488Z,100116.81
2022-11-07T08:06:32.641Z,100114.84
2022-11-07T08:09:02.362Z,100119.53
2022-11-07T08:11:35.278Z,100108.66
2022-11-07T08:14:04.892Z,100115.56
2022-11-07T08:16:34.647Z,100118.97
2022-11-07T08:19:04.223Z,100128.97
2022-11-07T08:21:33.908Z,100138.69
2022-11-07T08:24:03.651Z,100136.78
2022-11-07T08:26:35.933Z,100134.09
2022-11-07T08:29:05.503Z,100138.50
2022-11-07T08:31:35.158Z,100142.69
2022-11-07T08:34:04.881Z,100134.66
2022-11-07T08:36:34.582Z,100140.69
2022-11-07T08:39:04.175Z,100148.63
2022-11-07T08:41:36.301Z,100128.41
2022-11-07T08:44:08.256Z,100142.59
2022-11-07T08:46:37.996Z,100143.19
2022-11-07T08:49:07.867Z,100153.41
2022-11-07T08:51:37.441Z,100146.59
2022-11-07T08:54:07.407Z,100144.63
2022-11-07T08:56:39.600Z,100138.28
2022-11-07T08:59:09.941Z,100145.19
2022-11-07T09:01:56.119Z,100135.34
2022-11-07T09:04:29.268Z,100145.03
2022-11-07T09:06:59.288Z,100141.03
2022-11-07T09:09:28.853Z,100147.28
2022-11-07T09:12:01.169Z,100144.47
2022-11-07T09:14:31.259Z,100145.97
2022-11-07T09:17:01.105Z,100150.41
2022-11-07T09:19:30.873Z,100153.34
2022-11-07T09:22:00.552Z,100156.09
2022-11-07T09:24:30.133Z,100168.28
2022-11-07T09:27:02.343Z,100170.88
2022-11-07T09:29:31.990Z,100156.59
2022-11-07T09:32:12.145Z,100164.44
2022-11-07T09:34:58.170Z,100166.13
2022-11-07T09:37:30.539Z,100170.47
2022-11-07T09:40:00.170Z,100168.69
2022-11-07T09:42:39.772Z,100170.31
2022-11-07T09:45:13.632Z,100177.31
2022-11-07T09:47:46.628Z,100187.91
2022-11-07T09:50:20.531Z,100191.75
2022-11-07T09:52:52.501Z,100192.72
2022-11-07T09:55:26.168Z,100189.66
2022-11-07T09:58:00.776Z,100199.59
2022-11-07T10:00:33.157Z,100210.19
2022-11-07T10:03:04.219Z,100213.94
2022-11-07T10:05:41.465Z,100212.09
2022-11-07T10:08:14.995Z,100214.59
2022-11-07T10:10:47.754Z,100228.59
2022-11-07T10:13:32.838Z,100221.53
2022-11-07T10:16:07.676Z,100226.16
2022-11-07T10:18:46.533Z,100229.38
2022-11-07T10:21:38.741Z,100228.47
2022-11-07T10:24:28.745Z,100222.50
2022-11-07T10:26:59.386Z,100226.59
2022-11-07T10:29:44.804Z,100236.41
2022-11-07T10:32:21.633Z,100242.09
2022-11-07T10:34:56.254Z,100241.38
2022-11-07T10:37:25.943Z,100242.41
2022-11-07T10:39:55.479Z,100238.06
2022-11-07T10:42:27.358Z,100241.44
2022-11-07T10:44:59.632Z,100240.50
2022-11-07T10:47:30.511Z,100225.38
2022-11-07T10:50:02.260Z,100227.31
2022-11-07T10:52:32.242Z,100227.84
2022-11-07T10:55:09.767Z,100223.09
2022-11-07T10:57:39.399Z,100213.28
2022-11-07T11:00:25.346Z,100217.28
2022-11-07T11:02:56.221Z,100207.75
2022-11-07T11:05:29.505Z,100211.66
2022-11-07T11:08:00.860Z,100211.56
2022-11-07T11:10:31.892Z,100206.72
2022-11-07T11:13:01.441Z,100210.72
2022-11-07T11:15:35.914Z,100215.91
2022-11-07T11:18:08.056Z,100216.22
2022-11-07T11:20:40.524Z,100213.22
2022-11-07T11:23:18.846Z,100208.59
2022-11-07T11:25:49.310Z,100209.28
2022-11-07T11:28:25.023Z,100211.03
2022-11-07T11:31:01.231Z,100207.09
2022-11-07T11:33:35.312Z,100217.97
2022-11-07T11:36:07.202Z,100204.19
2022-11-07T11:38:39.089Z,100206.06
2022-11-07T11:41:16.171Z,100206.13
2022-11-07T11:43:49.645Z,100201.16
2022-11-07T11:46:28.740Z,100200.13
2022-11-07T11:49:00.887Z,100208.88
2022-11-07T11:51:40.136Z,100206.06
2022-11-07T11:54:11.878Z,100209.75
2022-11-07T11:56:52.819Z,100199.09
2022-11-07T11:59:37.995Z,100208.63
2022-11-07T12:02:27.218Z,100205.88
2022-11-07T12:05:01.421Z,100203.03
2022-11-07T12:07:41.847Z,100206.47
2022-11-07T12:10:16.194Z,100204.47
2022-11-07T12:12:55.888Z,100199.19
2022-11-07T12:15:35.737Z,100199.47
2022-11-07T12:18:14.054Z,100196.25
2022-11-07T12:20:50.403Z,100193.59
2022-11-07T12:23:29.559Z,100190.53
2022-11-07T12:26:05.225Z,100181.06
2022-11-07T12:28:43.309Z,100190.44
2022-11-07T12:31:22.277Z,100185.03
2022-11-07T12:33:58.853Z,100182.94
2022-11-07T12:36:40.070Z,100187.69
2022-11-07T12:39:36.833Z,100185.56
2022-11-07T12:42:10.369Z,100185.31
2022-11-07T12:44:56.742Z,100186.22
2022-11-07T12:47:40.867Z,100186.94
2022-11-07T12:50:21.968Z,100187.69
2022-11-07T12:53:03.515Z,100180.63
2022-11-07T12:55:36.260Z,100188.25
2022-11-07T12:58:06.903Z,100184.25
2022-11-07T13:00:38.515Z,100176.09
2022-11-07T13:03:49.780Z,100181.31
2022-11-07T13:06:27.734Z,100182.25
2022-11-07T13:09:03.580Z,100190.75
2022-11-07T13:11:37.539Z,100187.25
2022-11-07T13:14:24.294Z,100190.84
2022-11-07T13:16:56.762Z,100194.25
2022-11-07T13:19:32.979Z,100192.38
2022-11-07T13:22:07.970Z,100188.56
2022-11-07T13:24:41.291Z,100189.50
2022-11-07T13:27:19.390Z,100190.75
2022-11-07T13:29:49.026Z,100189.91
2022-11-07T13:32:19.259Z,100188.41
2022-11-07T13:34:52.037Z,100178.66
2022-11-07T13:37:26.339Z,100183.28
2022-11-07T13:39:59.159Z,100186.91
2022-11-07T13:42:29.977Z,100183.13
2022-11-07T13:45:01.127Z,100186.06
2022-11-07T13:47:37.407Z,100194.22
2022-11-07T13:50:16.199Z,100187.22
2022-11-07T13:52:53.144Z,100192.19
2022-11-07T13:55:25.378Z,100189.97
2022-11-07T13:57:56.944Z,100190.59
2022-11-07T14:00:26.510Z,100193.91
2022-11-07T14:02:57.659Z,100187.00
2022-11-07T14:05:29.499Z,100185.94
2022-11-07T14:08:03.761Z,100192.97
2022-11-07T14:10:36.332Z,100187.84
2022-11-07T14:13:08.750Z,100186.41
2022-11-07T14:15:39.780Z,100182.16
2022-11-07T14:18:09.679Z,100185.56
2022-11-07T14:20:39.231Z,100182.38
2022-11-07T14:23:16.355Z,100185.88
2022-11-07T14:25:46.012Z,100188.59
2022-11-07T14:28:19.397Z,100183.97
2022-11-07T14:30:52.369Z,100190.00
2022-11-07T14:33:23.917Z,100190.84
2022-11-07T14:35:54.639Z,100177.25
2022-11-07T14:38:27.807Z,100185.94
2022-11-07T14:40:58.490Z,100184.34
2022-11-07T14:43:29.168Z,100182.53
2022-11-07T14:46:12.971Z,100186.78
2022-11-07T14:48:45.502Z,100180.63
2022-11-07T14:51:17.568Z,100176.28
2022-11-07T14:53:56.304Z,100172.69
2022-11-07T14:56:28.883Z,100170.97
2022-11-07T14:58:58.993Z,100172.88
2022-11-07T15:01:31.408Z,100175.16
2022-11-07T15:04:02.691Z,100175.25
2022-11-07T15:06:35.993Z,100173.47
2022-11-07T15:09:09.679Z,100183.84
2022-11-07T15:11:40.599Z,100184.25
2022-11-07T15:14:25.169Z,100176.09
2022-11-07T15:16:54.983Z,100180.25
2022-11-07T15:19:26.539Z,100172.28
2022-11-07T15:21:58.398Z,100173.34
2022-11-07T15:24:40.677Z,100166.81
2022-11-07T15:27:21.815Z,100162.41
2022-11-07T15:29:54.287Z,100169.25
2022-11-07T15:32:26.299Z,100174.75
2022-11-07T15:35:17.018Z,100177.06
2022-11-07T15:37:54.603Z,100171.53
2022-11-07T15:40:27.067Z,100176.28
2022-11-07T15:42:57.214Z,100173.84
2022-11-07T15:45:26.906Z,100174.97
2022-11-07T15:47:56.621Z,100178.31
2022-11-07T15:50:28.669Z,100188.25
2022-11-07T15:52:58.201Z,100190.41
2022-11-07T15:55:30.366Z,100193.47
2022-11-07T15:57:59.926Z,100187.41
2022-11-07T16:00:29.811Z,100204.16
2022-11-07T16:02:59.178Z,100194.31
2022-11-07T16:05:28.562Z,100195.28
2022-11-07T16:07:58.291Z,100205.88
2022-11-07T16:10:30.333Z,100201.31
2022-11-07T16:13:04.714Z,100204.94
2022-11-07T16:15:34.469Z,100199.06
2022-11-07T16:18:03.859Z,100205.31
2022-11-07T16:20:33.821Z,100214.97
2022-11-07T16:23:03.354Z,100208.25
2022-11-07T16:25:35.366Z,100215.25
2022-11-07T16:28:04.936Z,100202.84
2022-11-07T16:30:34.411Z,100217.34
2022-11-07T16:33:03.753Z,100209.66
2022-11-07T16:35:33.156Z,100201.72
2022-11-07T16:38:02.590Z,100203.16
2022-11-07T16:40:31.963Z,100206.00
2022-11-07T16:43:03.921Z,100204.22
2022-11-07T16:45:33.255Z,100213.41
2022-11-07T16:48:02.597Z,100215.94
2022-11-07T16:50:32.501Z,100215.72
2022-11-07T16:53:01.891Z,100216.78
2022-11-07T16:55:31.206Z,100218.31
2022-11-07T16:58:00.525Z,100214.50
2022-11-07T17:00:32.432Z,100218.00
2022-11-07T17:03:01.922Z,100216.19
2022-11-07T17:05:31.327Z,100220.88
2022-11-07T17:08:01.483Z,100218.22
2022-11-07T17:10:30.910Z,100215.56
2022-11-07T17:13:00.387Z,100211.09
2022-11-07T17:15:32.326Z,100213.66
2022-11-07T17:18:07.245Z,100219.81
2022-11-07T17:20:53.002Z,100232.31
2022-11-07T17:23:28.490Z,100221.59
2022-11-07T17:25:59.680Z,100218.84
2022-11-07T17:28:29.042Z,100217.16
2022-11-07T17:31:00.986Z,100221.72
2022-11-07T17:33:30.344Z,100228.72
2022-11-07T17:35:59.689Z,100215.34
2022-11-07T17:38:29.019Z,100217.91
2022-11-07T17:41:17.058Z,100225.78
2022-11-07T17:43:46.451Z,100227.59
2022-11-07T17:46:20.691Z,100226.72
2022-11-07T17:48:50.175Z,100227.16
2022-11-07T17:51:19.550Z,100222.94
2022-11-07T17:53:48.821Z,100234.28
2022-11-07T17:56:18.888Z,100227.94
2022-11-07T17:58:48.773Z,100241.69
2022-11-07T18:01:21.359Z,100229.34
2022-11-07T18:03:51.009Z,100233.91
2022-11-07T18:06:23.364Z,100231.25
2022-11-07T18:08:53.321Z,100231.25
2022-11-07T18:11:23.164Z,100236.56
2022-11-07T18:13:52.656Z,100239.13
2022-11-07T18:16:25.403Z,100235.06
2022-11-07T18:18:54.745Z,100239.78
2022-11-07T18:21:24.096Z,100231.72
2022-11-07T18:23:53.432Z,100225.78
2022-11-07T18:26:25.350Z,100227.09
2022-11-07T18:28:55.373Z,100223.38
2022-11-07T18:31:27.416Z,100224.53
2022-11-07T18:33:58.299Z,100226.88
2022-11-07T18:36:27.889Z,100235.53
2022-11-07T18:38:57.302Z,100226.81
2022-11-07T18:41:26.648Z,100246.31
2022-11-07T18:44:00.360Z,100232.13
2022-11-07T18:46:35.286Z,100234.75
2022-11-07T18:49:05.180Z,100230.25
2022-11-07T18:51:34.807Z,100228.22
2022-11-07T18:54:05.027Z,100223.78
2022-11-07T18:56:34.495Z,100228.63
2022-11-07T18:59:03.796Z,100224.38
2022-11-07T19:01:36.060Z,100224.47
2022-11-07T19:04:07.584Z,100234.03
2022-11-07T19:06:37.001Z,100222.19
2022-11-07T19:09:06.520Z,100222.19
2022-11-07T19:11:35.871Z,100230.31
2022-11-07T19:14:05.550Z,100233.75
2022-11-07T19:16:37.487Z,100226.53
2022-11-07T19:19:06.927Z,100223.88
2022-11-07T19:21:39.144Z,100230.88
2022-11-07T19:24:12.705Z,100226.53
2022-11-07T19:26:42.297Z,100240.75
2022-11-07T19:29:12.434Z,100244.50
2022-11-07T19:31:44.359Z,100244.72
2022-11-07T19:34:13.702Z,100238.44
2022-11-07T19:36:43.100Z,100231.44
2022-11-07T19:39:12.428Z,100233.81
2022-11-07T19:41:41.674Z,100237.72
2022-11-07T19:44:11.035Z,100233.16
2022-11-07T19:46:40.387Z,100229.66
2022-11-07T19:49:12.305Z,100224.63
2022-11-07T19:51:41.608Z,100234.03
2022-11-07T19:54:10.972Z,100236.94
2022-11-07T19:56:40.289Z,100236.09
2022-11-07T19:59:09.637Z,100242.19
2022-11-07T20:01:39.431Z,100241.59
2022-11-07T20:04:08.968Z,100235.81
2022-11-07T20:06:41.182Z,100241.69
2022-11-07T20:09:11.425Z,100227.88
2022-11-07T20:11:42.094Z,100236.03
2022-11-07T20:14:12.426Z,100245.09
2022-11-07T20:16:41.779Z,100241.59
2022-11-07T20:19:11.086Z,100234.72
2022-11-07T20:21:42.978Z,100234.72
2022-11-07T20:24:12.330Z,100241.81
2022-11-07T20:26:42.570Z,100239.34
2022-11-07T20:29:11.920Z,100236.41
2022-11-07T20:31:43.299Z,100238.00
2022-11-07T20:34:15.389Z,100243.31
2022-11-07T20:36:49.020Z,100246.06
2022-11-07T20:39:18.327Z,100240.56
2022-11-07T20:41:47.794Z,100241.41
2022-11-07T20:44:17.410Z,100241.59
2022-11-07T20:46:47.345Z,100245.59
2022-11-07T20:49:17.649Z,100241.22
2022-11-07T20:51:49.575Z,100241.34
2022-11-07T20:54:18.880Z,100237.09
2022-11-07T20:56:48.220Z,100247.75
2022-11-07T20:59:17.566Z,100240.97
2022-11-07T21:01:48.291Z,100248.44
2022-11-07T21:04:18.051Z,100233.50
2022-11-07T21:06:50.047Z,100240.75
2022-11-07T21:09:19.866Z,100242.84
2022-11-07T21:11:49.239Z,100256.75
2022-11-07T21:14:18.603Z,100251.75
2022-11-07T21:16:47.954Z,100250.97
2022-11-07T21:19:17.722Z,100245.13
2022-11-07T21:21:49.207Z,100248.72
2022-11-07T21:24:21.101Z,100257.88
2022-11-07T21:26:50.460Z,100252.50
2022-11-07T21:29:20.702Z,100256.28
2022-11-07T21:31:52.283Z,100246.06
2022-11-07T21:34:21.638Z,100243.41
2022-11-07T21:36:50.997Z,100245.84
2022-11-07T21:39:22.935Z,100246.91
2022-11-07T21:41:52.336Z,100257.50
2022-11-07T21:44:21.765Z,100248.41
2022-11-07T21:46:51.085Z,100243.31
2022-11-07T21:49:20.497Z,100246.91
2022-11-07T21:51:49.819Z,100243.56
2022-11-07T21:54:19.440Z,100236.50
2022-11-07T21:56:51.593Z,100239.91
2022-11-07T21:59:21.007Z,100238.84
2022-11-07T22:01:50.903Z,100240.56
2022-11-07T22:04:20.347Z,100230.16
2022-11-07T22:06:49.657Z,100235.63
2022-11-07T22:09:19.825Z,100238.09
2022-11-07T22:11:52.051Z,100235.56
2022-11-07T22:14:21.931Z,100222.38
2022-11-07T22:16:51.458Z,100230.06
2022-11-07T22:19:20.992Z,100224.06
2022-11-07T22:21:51.437Z,100223.38
2022-11-07T22:24:20.754Z,100217.91
2022-11-07T22:26:52.663Z,100214.00
2022-11-07T22:29:21.996Z,100219.31
2022-11-07T22:31:51.635Z,100218.56
2022-11-07T22:34:21.008Z,100218.56
2022-11-07T22:36:50.375Z,100210.06
2022-11-07T22:39:19.761Z,100207.47
2022-11-07T22:41:49.195Z,100208.53
2022-11-07T22:44:21.215Z,100202.38
2022-11-07T22:46:50.553Z,100200.84
2022-11-07T22:49:20.190Z,100199.72
2022-11-07T22:51:49.508Z,100198.13
2022-11-07T22:54:18.826Z,100199.25
2022-11-07T22:56:48.152Z,100203.69
2022-11-07T22:59:17.468Z,100202.00
2022-11-07T23:01:49.478Z,100197.34
2022-11-07T23:04:19.038Z,100188.25
2022-11-07T23:06:48.523Z,100196.41
2022-11-07T23:09:18.274Z,100183.91
2022-11-07T23:11:48.899Z,100183.31
2022-11-07T23:14:19.038Z,100198.81
2022-11-07T23:16:51.456Z,100189.75
2022-11-07T23:19:21.615Z,100188.06
2022-11-07T23:21:51.645Z,100183.88
2022-11-07T23:24:21.192Z,100190.31
2022-11-07T23:26:50.663Z,100186.72
2022-11-07T23:29:21.016Z,100185.66
2022-11-07T23:31:53.219Z,100186.03
2022-11-07T23:34:23.008Z,100183.47
2022-11-07T23:36:52.990Z,100169.31
2022-11-07T23:39:22.962Z,100171.78
2022-11-07T23:41:52.294Z,100174.69
2022-11-07T23:44:21.638Z,100166.75
2022-11-07T23:47:05.979Z,100181.19
2022-11-07T23:49:50.139Z,100171.75
2022-11-07T23:52:19.722Z,100173.44
2022-11-07T23:55:01.484Z,100166.81
2022-11-07T23:57:30.847Z,100173.88
